Time;durP1;ratioP1;P1;durP2;ratioP2;P2;SDS_P1;SDS_P2;PMS_P1;PMS_P2;Temp;Humidity;BMP_temperature;BMP_pressure;BME280_temperature;BME280_humidity;BME280_pressure;Samples;Min_cycle;Max_cycle;Signal;HPM_P1;HPM_P2
2021/09/18 00:00:36;;;;;;;5.30;4.80;;;;;;;14.70;72.13;99181.41;5054968;28;20230;-92
2021/09/18 00:03:10;;;;;;;4.90;4.40;;;;;;;14.76;71.95;99183.06;5037936;28;20236;-85
2021/09/18 00:05:41;;;;;;;5.13;4.63;;;;;;;14.94;71.52;99190.78;5053078;28;20236;-81
2021/09/18 00:08:11;;;;;;;5.10;4.70;;;;;;;14.86;71.26;99186.69;5036491;28;20311;-83
2021/09/18 00:10:44;;;;;;;5.30;4.90;;;;;;;14.88;71.65;99187.22;5037991;28;20252;-84
2021/09/18 00:13:17;;;;;;;6.20;5.60;;;;;;;14.95;71.33;99195.91;5054323;28;20236;-87
2021/09/18 00:15:52;;;;;;;5.30;4.77;;;;;;;14.88;71.62;99189.91;5039084;28;20225;-84
2021/09/18 00:18:25;;;;;;;5.13;4.73;;;;;;;14.88;71.42;99184.53;5054511;28;20236;-89
2021/09/18 00:21:02;;;;;;;5.30;4.80;;;;;;;14.99;70.89;99185.41;5054666;28;20234;-90
2021/09/18 00:23:34;;;;;;;5.07;4.67;;;;;;;14.97;71.53;99188.41;5023630;28;20253;-92
2021/09/18 00:26:06;;;;;;;5.77;5.27;;;;;;;14.97;71.26;99182.19;5022304;28;20231;-94
2021/09/18 00:28:39;;;;;;;5.40;5.00;;;;;;;14.93;71.57;99184.56;5054722;28;20228;-90
2021/09/18 00:31:12;;;;;;;5.57;5.07;;;;;;;14.96;71.60;99200.25;5038193;28;20311;-91
2021/09/18 00:33:48;;;;;;;5.90;5.20;;;;;;;14.96;71.23;99192.16;5054622;28;20634;-82
2021/09/18 00:36:18;;;;;;;5.53;5.10;;;;;;;15.06;71.16;99194.13;5054260;28;20672;-89
2021/09/18 00:38:48;;;;;;;5.20;4.80;;;;;;;15.07;70.80;99198.41;5038375;28;20236;-92
2021/09/18 00:41:18;;;;;;;5.73;5.20;;;;;;;15.15;70.49;99197.13;5039471;28;20552;-92
2021/09/18 00:43:56;;;;;;;5.10;4.70;;;;;;;15.10;70.74;99197.09;5054145;28;20231;-92
2021/09/18 00:46:29;;;;;;;5.27;4.77;;;;;;;15.08;70.79;99193.84;5037242;28;20311;-91
2021/09/18 00:49:00;;;;;;;4.83;4.43;;;;;;;15.06;70.83;99194.13;5054542;28;20282;-93
2021/09/18 00:51:31;;;;;;;5.00;4.60;;;;;;;15.11;70.67;99187.94;5022234;28;20244;-84
2021/09/18 00:54:05;;;;;;;4.80;4.40;;;;;;;15.12;70.61;99192.25;5054118;28;20683;-89
2021/09/18 00:56:37;;;;;;;5.07;4.67;;;;;;;15.07;70.54;99192.22;5054150;28;20616;-88
2021/09/18 00:59:07;;;;;;;5.10;4.60;;;;;;;15.07;71.01;99189.53;5054268;28;20232;-90
2021/09/18 01:01:41;;;;;;;5.93;5.03;;;;;;;15.12;71.02;99195.75;5054201;28;20231;-88
2021/09/18 01:04:10;;;;;;;5.23;4.77;;;;;;;15.01;70.71;99183.28;5053409;28;20670;-91
2021/09/18 01:06:43;;;;;;;5.30;4.80;;;;;;;14.95;71.47;99182.44;5038166;28;20308;-91
2021/09/18 01:09:13;;;;;;;5.67;5.03;;;;;;;14.92;71.21;99185.66;5054256;28;20236;-92
2021/09/18 01:11:50;;;;;;;5.67;5.17;;;;;;;14.90;71.62;99189.66;5038940;28;20224;-82
2021/09/18 01:14:23;;;;;;;5.27;4.77;;;;;;;14.89;71.73;99196.13;5053844;28;20243;-85
2021/09/18 01:16:57;;;;;;;5.60;5.03;;;;;;;14.78;72.00;99187.16;5053773;28;20261;-82
2021/09/18 01:19:29;;;;;;;6.03;4.83;;;;;;;14.73;72.09;99181.72;5055071;28;20228;-90
2021/09/18 01:22:00;;;;;;;5.70;5.20;;;;;;;14.78;71.96;99187.16;5037584;28;20236;-90
2021/09/18 01:24:33;;;;;;;6.00;5.40;;;;;;;14.79;72.14;99187.97;5054243;28;20251;-90
2021/09/18 01:27:18;;;;;;;5.80;5.40;;;;;;;14.71;72.44;99188.44;5053628;28;20285;-92
2021/09/18 01:29:49;;;;;;;5.70;5.20;;;;;;;14.66;72.97;99188.38;5054043;28;20231;-84
2021/09/18 01:32:21;;;;;;;6.10;5.60;;;;;;;14.62;73.24;99189.97;5037504;28;20700;-93
2021/09/18 01:34:55;;;;;;;5.80;5.30;;;;;;;14.55;73.12;99171.31;5054068;28;20227;-88
2021/09/18 01:37:29;;;;;;;6.30;5.80;;;;;;;14.46;72.89;99170.16;5038421;28;20311;-93
2021/09/18 01:40:03;;;;;;;6.67;6.07;;;;;;;14.51;73.20;99178.31;5054112;28;20227;-89
2021/09/18 01:42:43;;;;;;;6.33;5.73;;;;;;;14.58;73.17;99189.69;5038313;28;20526;-88
2021/09/18 01:45:16;;;;;;;7.30;6.57;;;;;;;14.61;73.32;99182.94;5021686;28;20273;-84
2021/09/18 01:47:55;;;;;;;6.47;5.87;;;;;;;14.54;73.32;99186.69;5053707;28;20233;-85
2021/09/18 01:50:40;;;;;;;6.40;5.80;;;;;;;14.58;73.30;99188.84;5053792;28;20589;-91
2021/09/18 01:53:15;;;;;;;6.83;5.80;;;;;;;14.50;73.55;99184.75;5039306;28;20535;-88
2021/09/18 01:55:49;;;;;;;6.53;5.90;;;;;;;14.43;73.76;99173.34;5041952;28;20221;-92
2021/09/18 01:58:19;;;;;;;6.10;5.50;;;;;;;14.35;73.66;99169.22;5057293;28;20239;-90
2021/09/18 02:00:51;;;;;;;5.70;5.20;;;;;;;14.43;74.15;99176.03;5057575;28;20316;-89
2021/09/18 02:03:25;;;;;;;6.00;5.43;;;;;;;14.35;73.90;99165.72;5041761;28;20231;-85
2021/09/18 02:05:59;;;;;;;6.63;6.03;;;;;;;14.35;74.24;99168.41;5057285;28;20226;-86
2021/09/18 02:08:38;;;;;;;6.50;5.90;;;;;;;14.31;74.18;99173.50;5041909;28;20232;-84
2021/09/18 02:11:34;;;;;;;6.07;5.50;;;;;;;14.24;74.35;99170.19;5044135;28;20237;-87
2021/09/18 02:14:08;;;;;;;6.37;5.77;;;;;;;14.21;74.64;99170.69;5041518;28;20262;-89
2021/09/18 02:16:41;;;;;;;5.90;5.40;;;;;;;14.25;74.81;99171.81;5057117;28;20228;-90
2021/09/18 02:19:13;;;;;;;6.13;5.63;;;;;;;14.23;74.67;99170.44;5040811;28;20555;-90
2021/09/18 02:21:45;;;;;;;5.80;5.30;;;;;;;14.22;74.92;99172.31;5040914;28;20311;-90
2021/09/18 02:24:18;;;;;;;8.07;5.37;;;;;;;14.26;74.27;99175.31;5040649;28;20707;-86
2021/09/18 02:26:48;;;;;;;5.90;5.40;;;;;;;14.29;74.53;99174.81;5057744;28;20460;-82
2021/09/18 02:29:24;;;;;;;5.60;5.13;;;;;;;14.32;74.70;99179.69;5040603;28;20235;-93
2021/09/18 02:31:58;;;;;;;5.23;4.73;;;;;;;14.25;74.61;99171.00;5056850;28;20250;-93
2021/09/18 02:34:30;;;;;;;5.70;5.23;;;;;;;14.21;75.18;99173.38;5040563;28;20232;-94
2021/09/18 02:37:11;;;;;;;5.03;4.70;;;;;;;14.13;75.37;99181.94;5026133;28;20231;-89
2021/09/18 02:39:44;;;;;;;5.53;5.03;;;;;;;14.10;75.56;99182.41;5056785;28;20228;-91
2021/09/18 02:42:23;;;;;;;5.97;5.00;;;;;;;14.02;76.07;99182.88;5041007;28;20235;-83
2021/09/18 02:44:59;;;;;;;5.40;4.90;;;;;;;14.02;76.70;99185.56;5041264;28;20223;-90
2021/09/18 02:47:38;;;;;;;5.47;4.97;;;;;;;14.00;76.97;99188.50;5040750;28;20230;-85
2021/09/18 02:50:11;;;;;;;5.50;5.00;;;;;;;14.00;77.01;99179.59;5056049;28;20277;-85
2021/09/18 02:52:48;;;;;;;5.60;5.20;;;;;;;14.00;77.43;99187.69;5040684;28;20231;-87
2021/09/18 02:55:29;;;;;;;5.40;5.00;;;;;;;13.96;77.49;99190.06;5057271;28;20254;-86
2021/09/18 02:58:07;;;;;;;5.50;5.07;;;;;;;13.90;77.65;99185.72;5056037;28;20234;-84
2021/09/18 03:00:44;;;;;;;6.97;5.57;;;;;;;13.85;77.40;99174.06;5040047;28;20641;-92
2021/09/18 03:03:24;;;;;;;5.80;5.27;;;;;;;13.85;77.88;99177.59;5055912;28;20279;-91
2021/09/18 03:05:58;;;;;;;6.07;5.57;;;;;;;13.90;77.54;99182.22;5056058;28;20656;-83
2021/09/18 03:08:29;;;;;;;6.30;5.37;;;;;;;13.87;77.98;99178.13;5039452;28;20248;-91
2021/09/18 03:11:07;;;;;;;5.93;5.50;;;;;;;13.93;77.55;99189.78;5040937;28;20653;-92
2021/09/18 03:13:42;;;;;;;6.40;5.80;;;;;;;13.85;77.79;99171.38;5039833;28;20227;-85
2021/09/18 03:16:11;;;;;;;5.90;5.40;;;;;;;13.87;77.67;99178.13;5055701;28;20955;-86
2021/09/18 03:18:45;;;;;;;6.40;5.30;;;;;;;13.88;77.65;99176.25;5039821;28;20233;-89
2021/09/18 03:21:16;;;;;;;5.60;5.07;;;;;;;13.89;77.68;99176.00;5039990;28;20228;-88
2021/09/18 03:23:53;;;;;;;5.97;5.20;;;;;;;13.89;77.56;99175.19;5040566;28;20230;-84
2021/09/18 03:26:29;;;;;;;6.03;5.53;;;;;;;13.93;77.86;99176.31;5039299;28;20255;-84
2021/09/18 03:28:58;;;;;;;5.80;5.27;;;;;;;13.98;77.32;99166.41;5039702;28;20222;-88
2021/09/18 03:31:33;;;;;;;5.77;5.37;;;;;;;14.01;77.53;99176.66;5055620;28;20273;-86
2021/09/18 03:34:02;;;;;;;6.87;5.60;;;;;;;14.04;77.41;99178.06;5039400;28;20231;-83
2021/09/18 03:36:45;;;;;;;5.73;5.23;;;;;;;14.00;77.40;99175.03;5055251;28;20318;-86
2021/09/18 03:39:15;;;;;;;5.43;5.03;;;;;;;13.96;77.18;99157.75;5055649;28;20231;-79
2021/09/18 03:41:51;;;;;;;5.80;5.30;;;;;;;14.08;77.05;99171.09;5039601;28;20228;-86
2021/09/18 03:44:26;;;;;;;5.40;5.00;;;;;;;14.07;77.15;99177.53;5039153;28;20521;-89
2021/09/18 03:46:57;;;;;;;5.47;4.97;;;;;;;14.13;76.82;99187.31;5038884;28;20236;-84
2021/09/18 03:49:30;;;;;;;5.60;5.20;;;;;;;14.07;76.99;99178.38;5038826;28;20670;-84
2021/09/18 03:52:06;;;;;;;5.27;4.80;;;;;;;14.12;76.94;99183.00;5055090;28;20235;-83
2021/09/18 03:54:43;;;;;;;5.00;4.60;;;;;;;14.13;76.39;99183.81;5039534;28;20301;-83
2021/09/18 03:57:16;;;;;;;5.40;5.00;;;;;;;14.12;76.73;99183.00;5055063;28;20241;-90
2021/09/18 03:59:52;;;;;;;5.77;5.27;;;;;;;14.21;76.66;99200.34;5055248;28;20653;-82
2021/09/18 04:02:24;;;;;;;5.23;4.83;;;;;;;14.12;76.78;99177.59;5038513;28;20728;-83
2021/09/18 04:04:54;;;;;;;5.70;5.10;;;;;;;14.24;76.56;99193.59;5038686;28;20580;-86
2021/09/18 04:07:24;;;;;;;5.70;5.10;;;;;;;14.27;76.68;99191.25;5052428;28;20238;-85
2021/09/18 04:09:57;;;;;;;5.60;5.10;;;;;;;14.30;76.46;99187.22;5059081;28;20223;-91
2021/09/18 04:12:31;;;;;;;5.60;5.10;;;;;;;14.34;76.47;99188.31;5074613;28;20300;-80
2021/09/18 04:15:13;;;;;;;6.03;5.37;;;;;;;14.31;76.38;99186.97;5074569;28;20321;-85
2021/09/18 04:17:51;;;;;;;5.80;5.30;;;;;;;14.38;76.35;99192.16;5059125;28;20223;-81
2021/09/18 04:20:21;;;;;;;5.67;5.17;;;;;;;14.37;76.50;99195.97;5058295;28;20268;-88
2021/09/18 04:22:54;;;;;;;6.37;5.77;;;;;;;14.38;75.88;99189.47;5074710;28;20226;-85
2021/09/18 04:25:23;;;;;;;6.80;6.20;;;;;;;14.39;76.11;99191.94;5042717;28;20311;-88
2021/09/18 04:28:00;;;;;;;6.47;5.87;;;;;;;14.40;76.04;99195.44;5074772;28;20629;-84
2021/09/18 04:30:33;;;;;;;6.57;5.97;;;;;;;14.42;76.01;99193.28;5041859;28;20701;-87
2021/09/18 04:33:07;;;;;;;5.63;5.13;;;;;;;14.45;76.25;99200.88;5058617;28;20226;-88
2021/09/18 04:35:43;;;;;;;6.83;6.23;;;;;;;14.41;76.19;99194.38;5058971;28;20650;-83
2021/09/18 04:38:20;;;;;;;6.20;5.70;;;;;;;14.44;76.13;99193.84;5074059;28;20606;-83
2021/09/18 04:40:55;;;;;;;5.80;5.30;;;;;;;14.49;75.98;99205.50;5074479;28;20227;-86
2021/09/18 04:43:30;;;;;;;6.13;5.53;;;;;;;14.46;76.17;99205.22;5074341;28;20235;-83
2021/09/18 04:46:04;;;;;;;6.07;5.57;;;;;;;14.50;76.62;99206.31;5058044;28;20235;-92
2021/09/18 04:48:42;;;;;;;6.00;5.50;;;;;;;14.53;76.59;99203.09;5073873;28;20230;-81
2021/09/18 04:51:18;;;;;;;5.80;5.30;;;;;;;14.52;76.50;99204.97;5043170;28;20241;-87
2021/09/18 04:53:51;;;;;;;5.90;5.40;;;;;;;14.55;76.59;99203.69;5038587;28;20241;-89
2021/09/18 04:56:23;;;;;;;6.10;5.50;;;;;;;14.60;76.34;99205.59;5038057;28;20238;-84
2021/09/18 04:59:01;;;;;;;5.90;5.40;;;;;;;14.63;76.28;99208.59;5054179;28;20227;-88
2021/09/18 05:01:31;;;;;;;5.97;5.40;;;;;;;14.70;76.10;99214.56;5038499;28;20585;-88
2021/09/18 05:04:07;;;;;;;6.30;5.70;;;;;;;14.73;76.07;99211.38;5038040;28;20301;-84
2021/09/18 05:06:40;;;;;;;5.37;4.93;;;;;;;14.80;75.81;99217.38;5053868;28;20230;-80
2021/09/18 05:09:20;;;;;;;6.20;5.00;;;;;;;14.82;75.74;99209.84;5039353;28;20264;-83
2021/09/18 05:12:03;;;;;;;5.50;5.00;;;;;;;14.93;75.43;99211.53;5053976;28;20305;-90
2021/09/18 05:14:34;;;;;;;4.90;4.50;;;;;;;14.99;75.17;99220.47;5037673;28;20251;-87
2021/09/18 05:17:10;;;;;;;5.77;5.27;;;;;;;15.02;75.04;99211.09;5037867;28;20279;-88
2021/09/18 05:19:42;;;;;;;5.40;4.97;;;;;;;15.12;74.66;99222.75;5038017;28;20673;-91
2021/09/18 05:22:13;;;;;;;5.13;4.73;;;;;;;15.14;74.56;99211.69;5037150;28;20256;-85
2021/09/18 05:24:51;;;;;;;5.27;4.77;;;;;;;15.19;74.23;99215.25;5054204;28;20270;-93
2021/09/18 05:27:22;;;;;;;5.10;4.60;;;;;;;15.18;73.82;99208.22;5055377;28;20287;-85
2021/09/18 05:30:04;;;;;;;5.00;4.60;;;;;;;15.24;73.26;99226.09;5043027;28;20237;-87
2021/09/18 05:32:37;;;;;;;5.60;5.10;;;;;;;15.20;73.46;99216.06;5038545;28;20219;-93
2021/09/18 05:35:15;;;;;;;4.80;4.50;;;;;;;15.27;73.50;99214.75;5024701;28;20213;-90
2021/09/18 05:37:51;;;;;;;5.30;4.87;;;;;;;15.31;73.14;99220.44;5039803;28;20247;-88
2021/09/18 05:40:29;;;;;;;5.17;4.77;;;;;;;15.32;73.23;99217.50;5057101;28;20234;-90
2021/09/18 05:43:10;;;;;;;5.23;4.83;;;;;;;15.50;73.21;99221.66;5057038;28;20262;-82
2021/09/18 05:45:45;;;;;;;5.10;4.60;;;;;;;15.62;72.57;99218.78;5041910;28;20220;-92
2021/09/18 05:48:16;;;;;;;5.00;4.60;;;;;;;15.77;72.04;99226.97;5057445;28;20233;-91
2021/09/18 05:50:55;;;;;;;4.80;4.40;;;;;;;15.81;71.52;99215.38;5057213;28;20240;-87
2021/09/18 05:53:28;;;;;;;5.00;4.50;;;;;;;15.98;71.28;99215.16;5073998;28;20233;-91
2021/09/18 05:56:04;;;;;;;4.77;4.43;;;;;;;16.16;70.95;99224.69;5061712;28;20255;-82
2021/09/18 05:58:37;;;;;;;4.67;4.27;;;;;;;16.32;70.29;99222.84;5061117;28;20255;-92
2021/09/18 06:01:10;;;;;;;4.97;4.57;;;;;;;16.37;70.30;99215.56;5056716;28;20320;-90
2021/09/18 06:03:44;;;;;;;4.90;4.50;;;;;;;16.56;69.89;99216.66;5057423;28;20229;-91
2021/09/18 06:06:20;;;;;;;4.53;4.23;;;;;;;16.77;69.03;99214.00;5057792;28;20243;-86
2021/09/18 06:08:51;;;;;;;5.13;4.67;;;;;;;16.86;68.93;99213.19;5057592;28;20235;-87
2021/09/18 06:11:22;;;;;;;5.07;4.67;;;;;;;16.97;68.52;99216.72;5041023;28;20313;-91
2021/09/18 06:13:58;;;;;;;5.07;4.50;;;;;;;17.06;67.96;99218.63;5057149;28;20229;-86
2021/09/18 06:16:32;;;;;;;5.10;4.60;;;;;;;17.10;67.96;99221.59;5056759;28;20221;-92
2021/09/18 06:19:06;;;;;;;5.03;4.63;;;;;;;17.15;67.83;99222.41;5057116;28;20308;-85
2021/09/18 06:21:36;;;;;;;5.10;4.70;;;;;;;17.09;67.92;99222.66;5041130;28;20225;-88
2021/09/18 06:24:14;;;;;;;5.07;4.57;;;;;;;17.02;68.25;99212.13;5056836;28;20262;-87
2021/09/18 06:26:58;;;;;;;5.40;4.87;;;;;;;17.00;68.45;99217.00;5056902;28;20676;-88
2021/09/18 06:29:29;;;;;;;7.00;4.70;;;;;;;17.02;68.50;99216.72;5042246;28;20236;-83
2021/09/18 06:32:07;;;;;;;5.30;4.80;;;;;;;16.99;68.63;99225.38;5040809;28;20226;-84
2021/09/18 06:34:44;;;;;;;5.30;4.77;;;;;;;17.03;68.61;99211.03;5056878;28;20229;-86
2021/09/18 06:37:22;;;;;;;5.57;4.97;;;;;;;17.08;68.09;99218.31;5056808;28;20223;-85
2021/09/18 06:39:52;;;;;;;5.43;5.03;;;;;;;17.31;67.35;99222.41;5055856;28;20573;-88
2021/09/18 06:42:32;;;;;;;6.27;5.77;;;;;;;17.47;67.37;99213.97;5056162;28;20233;-86
2021/09/18 06:45:09;;;;;;;6.60;5.53;;;;;;;17.66;66.96;99216.09;5041024;28;20237;-86
2021/09/18 06:47:46;;;;;;;5.70;5.23;;;;;;;17.77;65.62;99210.38;5040324;28;20259;-91
2021/09/18 06:50:16;;;;;;;5.10;4.70;;;;;;;17.90;65.58;99212.50;5041285;28;20532;-88
2021/09/18 06:52:46;;;;;;;5.67;4.90;;;;;;;18.10;64.29;99208.91;5055981;28;20229;-90
2021/09/18 06:55:18;;;;;;;5.03;4.53;;;;;;;18.29;63.25;99219.91;5056514;28;20517;-88
2021/09/18 06:57:52;;;;;;;5.23;4.37;;;;;;;18.41;62.95;99214.94;5056490;28;20221;-84
2021/09/18 07:00:25;;;;;;;5.53;4.50;;;;;;;18.73;62.16;99217.22;5056017;28;20237;-81
2021/09/18 07:02:56;;;;;;;4.50;4.20;;;;;;;18.91;62.09;99211.09;5056413;28;20229;-87
2021/09/18 07:05:25;;;;;;;5.07;4.03;;;;;;;19.06;61.42;99210.16;5039902;28;20225;-89
2021/09/18 07:07:57;;;;;;;4.80;4.40;;;;;;;19.30;60.49;99216.47;5056180;28;20304;-83
2021/09/18 07:10:26;;;;;;;4.73;4.33;;;;;;;19.51;59.63;99223.31;5056064;28;20221;-87
2021/09/18 07:13:00;;;;;;;4.80;4.40;;;;;;;19.64;59.51;99222.63;5056037;28;20287;-85
2021/09/18 07:15:32;;;;;;;4.27;3.87;;;;;;;19.72;58.37;99219.31;5039862;28;20256;-83
2021/09/18 07:18:08;;;;;;;4.37;4.07;;;;;;;19.97;57.59;99220.91;5024503;28;20299;-80
2021/09/18 07:20:40;;;;;;;4.10;3.80;;;;;;;20.20;56.72;99206.44;5041100;28;20306;-88
2021/09/18 07:23:14;;;;;;;4.77;4.27;;;;;;;20.40;55.09;99220.91;5041016;28;20671;-84
2021/09/18 07:25:49;;;;;;;4.50;3.70;;;;;;;20.44;55.36;99220.03;5056037;28;20229;-82
2021/09/18 07:28:25;;;;;;;3.73;3.53;;;;;;;20.43;55.25;99195.84;5039520;28;20224;-81
2021/09/18 07:30:54;;;;;;;4.50;4.10;;;;;;;20.64;55.36;99211.59;5039494;28;20312;-80
2021/09/18 07:33:22;;;;;;;4.13;3.83;;;;;;;20.55;55.58;99226.97;5040648;28;20219;-81
2021/09/18 07:35:53;;;;;;;4.10;3.80;;;;;;;20.82;54.61;99222.75;5054899;28;20226;-83
2021/09/18 07:38:23;;;;;;;3.90;3.50;;;;;;;21.03;54.56;99199.53;5055868;28;20226;-83
2021/09/18 07:40:55;;;;;;;4.50;4.10;;;;;;;21.28;53.45;99196.38;5046389;28;20600;-81
2021/09/18 07:43:24;;;;;;;3.60;3.40;;;;;;;21.58;52.93;99199.66;5071426;28;20423;-82
2021/09/18 07:45:52;;;;;;;4.10;3.80;;;;;;;21.77;52.11;99203.09;5057099;28;20634;-82
2021/09/18 07:48:24;;;;;;;3.40;3.10;;;;;;;22.03;51.59;99197.94;5055484;28;20251;-84
2021/09/18 07:50:53;;;;;;;3.90;3.60;;;;;;;22.24;50.66;99205.41;5074699;28;20239;-84
2021/09/18 07:53:23;;;;;;;4.30;3.90;;;;;;;22.46;49.97;99212.84;5040585;28;20251;-96
2021/09/18 07:55:52;;;;;;;3.60;3.40;;;;;;;22.60;50.28;99218.25;5074598;28;20231;-89
2021/09/18 07:58:22;;;;;;;4.30;4.00;;;;;;;22.50;49.63;99210.28;5055535;28;20310;-92
2021/09/18 08:00:53;;;;;;;4.70;3.40;;;;;;;22.74;49.34;99217.13;5050884;28;20238;-87
2021/09/18 08:03:22;;;;;;;4.10;3.70;;;;;;;22.80;49.71;99204.16;5036587;28;20307;-90
2021/09/18 08:05:53;;;;;;;3.57;3.27;;;;;;;23.04;49.16;99215.59;5055309;28;20572;-87
2021/09/18 08:08:25;;;;;;;2.90;2.70;;;;;;;23.08;48.85;99202.91;5057878;28;20256;-90
2021/09/18 08:10:57;;;;;;;4.43;2.87;;;;;;;23.27;46.94;99208.16;5041479;28;20230;-89
2021/09/18 08:13:29;;;;;;;3.30;3.10;;;;;;;23.19;46.51;99208.91;5042251;28;20275;-94
2021/09/18 08:16:01;;;;;;;4.17;3.30;;;;;;;22.99;46.83;99210.25;5074819;28;20231;-90
2021/09/18 08:18:34;;;;;;;4.43;2.93;;;;;;;22.86;46.54;99208.41;5042052;28;20227;-91
2021/09/18 08:21:04;;;;;;;3.87;3.00;;;;;;;22.91;47.26;99204.72;5042396;28;20234;-91
2021/09/18 08:23:34;;;;;;;3.03;2.67;;;;;;;23.13;46.08;99200.06;5061244;28;20707;-90
2021/09/18 08:26:04;;;;;;;2.97;2.70;;;;;;;22.98;46.79;99213.28;5047564;28;20229;-89
2021/09/18 08:28:35;;;;;;;3.40;3.10;;;;;;;23.23;46.30;99197.06;5024305;28;20231;-92
2021/09/18 08:31:05;;;;;;;3.20;3.00;;;;;;;23.02;46.52;99200.59;5048201;28;20229;-89
2021/09/18 08:33:36;;;;;;;3.30;3.00;;;;;;;22.91;46.33;99199.25;5074154;28;20230;-91
2021/09/18 08:36:06;;;;;;;3.40;3.20;;;;;;;23.03;46.36;99192.13;5053707;28;20253;-90
2021/09/18 08:38:39;;;;;;;3.80;3.13;;;;;;;23.22;44.81;99198.19;5025203;28;20225;-91
2021/09/18 08:41:13;;;;;;;3.40;3.10;;;;;;;23.02;45.02;99200.59;5054249;28;20236;-92
2021/09/18 08:43:42;;;;;;;3.00;2.80;;;;;;;23.44;45.43;99208.28;5054154;28;20233;-95
2021/09/18 08:46:11;;;;;;;3.30;3.10;;;;;;;23.32;45.08;99197.09;5037258;28;20229;-87
2021/09/18 08:48:40;;;;;;;3.13;2.87;;;;;;;23.25;45.69;99207.66;5068918;28;20223;-90
2021/09/18 08:51:09;;;;;;;2.93;2.73;;;;;;;23.41;45.29;99195.22;5057448;28;20236;-93
2021/09/18 08:53:46;;;;;;;4.63;3.23;;;;;;;23.62;44.17;99199.03;5040013;28;20230;-90
2021/09/18 08:56:16;;;;;;;3.13;2.93;;;;;;;23.76;44.00;99189.91;5038242;28;20314;-90
2021/09/18 08:58:46;;;;;;;3.03;2.83;;;;;;;23.88;43.87;99193.69;5039262;28;20573;-93
2021/09/18 09:01:20;;;;;;;3.97;2.70;;;;;;;23.95;43.26;99196.75;5041244;28;20231;-89
2021/09/18 09:03:58;;;;;;;3.83;2.60;;;;;;;24.03;43.52;99190.47;5057412;28;20239;-92
2021/09/18 09:06:47;;;;;;;4.10;2.80;;;;;;;24.10;43.60;99196.31;5057730;28;20223;-91
2021/09/18 09:09:21;;;;;;;2.63;2.43;;;;;;;24.07;42.88;99186.00;5042634;28;20224;-91
2021/09/18 09:11:58;;;;;;;3.30;3.00;;;;;;;24.14;42.29;99196.47;5056972;28;20228;-94
2021/09/18 09:14:42;;;;;;;3.53;2.93;;;;;;;23.91;42.18;99194.97;5052507;28;20229;-88
2021/09/18 09:17:23;;;;;;;2.70;2.50;;;;;;;24.12;42.59;99204.97;5036858;28;20230;-91
2021/09/18 09:19:52;;;;;;;3.00;2.63;;;;;;;23.98;42.94;99187.88;5036480;28;20224;-90
2021/09/18 09:22:38;;;;;;;4.18;2.70;;;;;;;24.36;42.28;99203.75;5056546;28;20651;-89
2021/09/18 09:25:23;;;;;;;3.07;2.80;;;;;;;24.34;42.40;99195.09;5073381;28;20247;-94
2021/09/18 09:27:50;;;;;;;2.88;2.67;;;;;;;24.32;41.59;99189.91;5040408;28;20285;-94
2021/09/18 09:30:34;;;;;;;3.07;2.77;;;;;;;24.48;40.80;99182.84;5052943;28;20232;-90
2021/09/18 09:33:13;;;;;;;2.95;2.53;;;;;;;24.13;41.98;99198.38;5037333;28;20229;-88
2021/09/18 09:35:44;;;;;;;2.70;2.50;;;;;;;24.37;41.61;99183.47;5039679;28;20263;-93
2021/09/18 09:38:16;;;;;;;2.53;2.33;;;;;;;24.71;41.20;99182.69;5072984;28;20225;-91
2021/09/18 09:40:58;;;;;;;2.88;2.53;;;;;;;24.77;40.76;99186.88;5073237;28;20636;-86
2021/09/18 09:43:43;;;;;;;2.53;2.30;;;;;;;25.25;40.80;99178.41;5058105;28;20281;-93
2021/09/18 09:46:13;;;;;;;2.88;2.67;;;;;;;25.35;39.83;99191.78;5040280;28;20610;-85
2021/09/18 09:48:45;;;;;;;3.55;2.60;;;;;;;25.04;39.85;99183.81;5071733;28;20283;-86
2021/09/18 09:51:25;;;;;;;2.72;2.53;;;;;;;25.35;39.92;99183.56;5040233;28;20212;-87
2021/09/18 09:54:14;;;;;;;2.50;2.30;;;;;;;25.07;39.87;99187.81;5071805;28;20248;-88
2021/09/18 09:56:49;;;;;;;3.45;2.40;;;;;;;24.87;40.61;99184.63;5072660;28;20576;-85
2021/09/18 09:59:29;;;;;;;2.40;2.20;;;;;;;24.60;41.11;99176.72;5057629;28;20223;-84
2021/09/18 10:02:01;;;;;;;3.35;2.40;;;;;;;24.31;41.33;99184.78;5073068;28;20224;-84
2021/09/18 10:04:44;;;;;;;3.35;2.38;;;;;;;23.77;41.62;99169.66;5072452;28;20538;-87
2021/09/18 10:07:24;;;;;;;2.85;2.60;;;;;;;23.26;41.57;99174.56;5073369;28;20260;-82
2021/09/18 10:10:00;;;;;;;2.40;2.30;;;;;;;22.85;42.98;99179.47;5057236;28;20319;-82
2021/09/18 10:12:38;;;;;;;2.87;2.60;;;;;;;22.49;44.25;99170.47;5073252;28;20224;-90
2021/09/18 10:15:12;;;;;;;3.20;2.60;;;;;;;22.65;43.95;99169.81;5076018;28;20317;-86
2021/09/18 10:17:46;;;;;;;2.87;2.67;;;;;;;22.65;43.68;99177.19;5061107;28;20225;-87
2021/09/18 10:23:14;;;;;;;2.60;2.40;;;;;;;22.52;45.33;99172.59;5056258;28;20231;-88
2021/09/18 10:25:56;;;;;;;4.10;2.77;;;;;;;22.57;45.09;99188.84;5042997;28;20280;-89
2021/09/18 10:28:46;;;;;;;3.20;2.90;;;;;;;22.56;45.11;99188.03;5041812;28;20236;-82
2021/09/18 10:31:23;;;;;;;2.60;2.40;;;;;;;22.38;45.53;99189.00;5056679;28;20236;-87
2021/09/18 10:34:02;;;;;;;3.10;2.87;;;;;;;22.19;46.94;99194.59;5055387;28;20296;-85
2021/09/18 10:36:48;;;;;;;3.20;2.90;;;;;;;22.36;46.75;99213.06;5076952;28;20709;-87
2021/09/18 10:39:23;;;;;;;3.20;2.90;;;;;;;21.94;47.63;99204.13;5061452;28;20242;-87
2021/09/18 10:42:02;;;;;;;3.50;2.80;;;;;;;22.14;47.12;99196.63;5059943;28;20309;-85
2021/09/18 10:44:49;;;;;;;3.20;2.90;;;;;;;22.35;47.07;99192.34;5076449;28;20314;-84
2021/09/18 10:47:37;;;;;;;2.80;2.57;;;;;;;22.62;46.39;99196.91;5060667;28;20313;-87
2021/09/18 10:50:21;;;;;;;3.00;2.77;;;;;;;22.83;46.37;99207.06;5060369;28;20234;-88
2021/09/18 10:53:07;;;;;;;3.63;2.80;;;;;;;23.06;45.72;99207.88;5075606;28;20231;-87
2021/09/18 10:55:51;;;;;;;2.70;2.50;;;;;;;23.07;46.43;99189.56;5076818;28;20330;-85
2021/09/18 10:58:27;;;;;;;3.03;2.60;;;;;;;23.14;46.46;99193.44;5075970;28;20251;-87
2021/09/18 11:01:01;;;;;;;2.97;2.63;;;;;;;23.32;46.21;99194.38;5060324;28;20584;-87
2021/09/18 11:03:37;;;;;;;3.40;3.10;;;;;;;23.40;45.76;99192.78;5065552;28;20231;-86
2021/09/18 11:06:10;;;;;;;3.47;3.17;;;;;;;23.64;45.25;99183.13;5073961;28;20238;-87
2021/09/18 11:08:59;;;;;;;3.10;2.80;;;;;;;24.16;44.16;99179.72;5060697;28;20262;-83
2021/09/18 11:11:34;;;;;;;3.42;3.13;;;;;;;24.59;43.75;99177.06;5058901;28;20281;-84
2021/09/18 11:14:12;;;;;;;4.22;2.78;;;;;;;24.86;41.80;99171.25;5058983;28;20220;-86
2021/09/18 11:16:45;;;;;;;3.47;2.92;;;;;;;24.79;42.30;99170.91;5057825;28;20229;-84
2021/09/18 11:19:15;;;;;;;3.08;2.85;;;;;;;24.59;42.67;99166.09;5074143;28;20590;-88
2021/09/18 11:21:47;;;;;;;3.05;2.60;;;;;;;24.76;42.30;99164.16;5075628;28;20228;-82
2021/09/18 11:24:19;;;;;;;2.85;2.65;;;;;;;25.16;41.79;99166.69;5075341;28;20307;-87
2021/09/18 11:26:55;;;;;;;2.72;2.53;;;;;;;25.11;40.92;99151.22;5075904;28;20235;-86
2021/09/18 11:29:47;;;;;;;2.85;2.13;;;;;;;24.84;40.18;99157.84;5043149;28;20229;-81
2021/09/18 11:32:21;;;;;;;2.60;2.40;;;;;;;24.83;40.77;99152.69;5058663;28;20275;-87
2021/09/18 11:34:57;;;;;;;2.20;2.10;;;;;;;24.45;41.36;99136.16;5059629;28;20224;-83
2021/09/18 11:37:40;;;;;;;2.38;2.17;;;;;;;24.31;41.11;99147.22;5076025;28;20224;-87
2021/09/18 11:40:14;;;;;;;2.10;2.00;;;;;;;24.12;41.17;99152.22;5075227;28;20232;-83
2021/09/18 11:42:48;;;;;;;2.22;2.03;;;;;;;24.34;41.54;99149.34;5075335;28;20226;-83
2021/09/18 11:45:23;;;;;;;2.05;1.95;;;;;;;24.28;41.09;99149.81;5059479;28;20584;-84
2021/09/18 11:47:59;;;;;;;2.08;1.98;;;;;;;24.37;40.96;99142.41;5059364;28;20234;-81
2021/09/18 11:50:39;;;;;;;2.30;2.10;;;;;;;24.20;39.90;99161.56;5075251;28;20231;-86
2021/09/18 11:53:16;;;;;;;2.75;1.90;;;;;;;23.30;40.62;99147.41;5059494;28;20312;-88
2021/09/18 11:55:50;;;;;;;2.38;1.95;;;;;;;23.23;41.07;99136.94;5043421;28;20243;-88
2021/09/18 11:58:26;;;;;;;1.85;1.75;;;;;;;22.95;42.78;99151.91;5074299;28;20224;-85
2021/09/18 12:01:01;;;;;;;2.33;2.00;;;;;;;22.47;43.56;99162.59;5056173;28;20251;-87
2021/09/18 12:03:36;;;;;;;3.17;2.00;;;;;;;22.26;43.61;99150.50;5042635;28;20224;-85
2021/09/18 12:06:12;;;;;;;1.90;1.73;;;;;;;22.17;44.29;99157.81;5042864;28;20690;-82
2021/09/18 12:08:49;;;;;;;2.40;2.10;;;;;;;22.15;44.94;99160.06;5055207;28;20258;-87
2021/09/18 12:11:28;;;;;;;2.57;2.37;;;;;;;21.88;45.30;99167.13;5072781;28;20649;-87